sensor_id;sensor_type;location;lat;lon;timestamp;P1;durP1;ratioP1;P2;durP2;ratioP2
55879;SDS011;41802;51.564;-1.838;2023-01-08T00:01:34;13.32;;;1.17;;
55879;SDS011;41802;51.564;-1.838;2023-01-08T00:04:02;16.50;;;1.30;;
55879;SDS011;41802;51.564;-1.838;2023-01-08T00:06:30;18.10;;;2.03;;
55879;SDS011;41802;51.564;-1.838;2023-01-08T00:09:02;9.60;;;0.95;;
55879;SDS011;41802;51.564;-1.838;2023-01-08T00:11:29;14.85;;;1.52;;
55879;SDS011;41802;51.564;-1.838;2023-01-08T00:13:57;16.80;;;1.52;;
55879;SDS011;41802;51.564;-1.838;2023-01-08T00:16:25;11.48;;;1.27;;
55879;SDS011;41802;51.564;-1.838;2023-01-08T00:18:53;13.20;;;1.20;;
55879;SDS011;41802;51.564;-1.838;2023-01-08T00:21:21;12.00;;;0.98;;
55879;SDS011;41802;51.564;-1.838;2023-01-08T00:23:52;15.73;;;1.27;;
55879;SDS011;41802;51.564;-1.838;2023-01-08T00:26:21;17.17;;;1.40;;
55879;SDS011;41802;51.564;-1.838;2023-01-08T00:28:49;11.27;;;1.08;;
55879;SDS011;41802;51.564;-1.838;2023-01-08T00:31:17;9.97;;;1.20;;
55879;SDS011;41802;51.564;-1.838;2023-01-08T00:33:45;14.30;;;1.50;;
55879;SDS011;41802;51.564;-1.838;2023-01-08T00:36:13;13.98;;;1.30;;
55879;SDS011;41802;51.564;-1.838;2023-01-08T00:38:41;21.42;;;2.20;;
55879;SDS011;41802;51.564;-1.838;2023-01-08T00:41:09;14.15;;;1.40;;
55879;SDS011;41802;51.564;-1.838;2023-01-08T00:43:46;14.00;;;1.73;;
55879;SDS011;41802;51.564;-1.838;2023-01-08T00:46:13;10.80;;;1.35;;
55879;SDS011;41802;51.564;-1.838;2023-01-08T00:48:41;24.60;;;1.67;;
55879;SDS011;41802;51.564;-1.838;2023-01-08T00:51:09;12.80;;;1.40;;
55879;SDS011;41802;51.564;-1.838;2023-01-08T00:53:37;16.00;;;2.00;;
55879;SDS011;41802;51.564;-1.838;2023-01-08T00:56:05;18.13;;;2.27;;
55879;SDS011;41802;51.564;-1.838;2023-01-08T00:58:33;19.92;;;1.55;;
55879;SDS011;41802;51.564;-1.838;2023-01-08T01:01:07;19.27;;;1.75;;
55879;SDS011;41802;51.564;-1.838;2023-01-08T01:03:35;14.07;;;1.55;;
55879;SDS011;41802;51.564;-1.838;2023-01-08T01:06:03;14.18;;;1.30;;
55879;SDS011;41802;51.564;-1.838;2023-01-08T01:08:31;14.13;;;1.27;;
55879;SDS011;41802;51.564;-1.838;2023-01-08T01:11:00;14.93;;;2.05;;
55879;SDS011;41802;51.564;-1.838;2023-01-08T01:13:27;14.88;;;1.20;;
55879;SDS011;41802;51.564;-1.838;2023-01-08T01:15:55;14.70;;;1.60;;
55879;SDS011;41802;51.564;-1.838;2023-01-08T01:18:25;12.93;;;2.00;;
55879;SDS011;41802;51.564;-1.838;2023-01-08T01:20:53;15.00;;;1.80;;
55879;SDS011;41802;51.564;-1.838;2023-01-08T01:23:20;14.50;;;1.20;;
55879;SDS011;41802;51.564;-1.838;2023-01-08T01:25:48;17.20;;;1.58;;
55879;SDS011;41802;51.564;-1.838;2023-01-08T01:28:16;11.70;;;1.13;;
55879;SDS011;41802;51.564;-1.838;2023-01-08T01:30:43;18.60;;;1.75;;
55879;SDS011;41802;51.564;-1.838;2023-01-08T01:33:11;11.67;;;1.47;;
55879;SDS011;41802;51.564;-1.838;2023-01-08T01:35:40;10.73;;;1.40;;
55879;SDS011;41802;51.564;-1.838;2023-01-08T01:38:08;16.75;;;1.45;;
55879;SDS011;41802;51.564;-1.838;2023-01-08T01:40:39;18.98;;;1.23;;
55879;SDS011;41802;51.564;-1.838;2023-01-08T01:43:08;15.05;;;1.38;;
55879;SDS011;41802;51.564;-1.838;2023-01-08T01:45:36;13.17;;;1.07;;
55879;SDS011;41802;51.564;-1.838;2023-01-08T01:48:05;17.20;;;1.42;;
55879;SDS011;41802;51.564;-1.838;2023-01-08T01:50:36;15.45;;;1.55;;
55879;SDS011;41802;51.564;-1.838;2023-01-08T01:53:08;14.90;;;1.30;;
55879;SDS011;41802;51.564;-1.838;2023-01-08T01:55:37;13.45;;;1.30;;
55879;SDS011;41802;51.564;-1.838;2023-01-08T01:58:06;16.23;;;1.30;;
55879;SDS011;41802;51.564;-1.838;2023-01-08T02:00:37;14.32;;;1.35;;
55879;SDS011;41802;51.564;-1.838;2023-01-08T02:03:04;17.70;;;1.63;;
55879;SDS011;41802;51.564;-1.838;2023-01-08T02:05:33;18.20;;;1.10;;
55879;SDS011;41802;51.564;-1.838;2023-01-08T02:08:04;13.75;;;0.80;;
55879;SDS011;41802;51.564;-1.838;2023-01-08T02:10:36;18.93;;;1.07;;
55879;SDS011;41802;51.564;-1.838;2023-01-08T02:13:07;12.35;;;1.30;;
55879;SDS011;41802;51.564;-1.838;2023-01-08T02:15:37;8.77;;;0.90;;
55879;SDS011;41802;51.564;-1.838;2023-01-08T02:18:07;10.15;;;1.13;;
55879;SDS011;41802;51.564;-1.838;2023-01-08T02:20:36;9.93;;;0.80;;
55879;SDS011;41802;51.564;-1.838;2023-01-08T02:23:10;18.97;;;1.50;;
55879;SDS011;41802;51.564;-1.838;2023-01-08T02:28:28;11.18;;;0.90;;
55879;SDS011;41802;51.564;-1.838;2023-01-08T02:30:57;7.80;;;0.47;;
55879;SDS011;41802;51.564;-1.838;2023-01-08T02:33:26;7.78;;;0.93;;
55879;SDS011;41802;51.564;-1.838;2023-01-08T02:36:09;10.23;;;0.60;;
55879;SDS011;41802;51.564;-1.838;2023-01-08T02:38:44;8.00;;;0.77;;
55879;SDS011;41802;51.564;-1.838;2023-01-08T02:41:15;9.57;;;0.60;;
55879;SDS011;41802;51.564;-1.838;2023-01-08T02:43:45;7.47;;;0.63;;
55879;SDS011;41802;51.564;-1.838;2023-01-08T02:46:16;4.75;;;0.45;;
55879;SDS011;41802;51.564;-1.838;2023-01-08T02:48:46;3.90;;;0.40;;
55879;SDS011;41802;51.564;-1.838;2023-01-08T02:51:16;10.88;;;0.77;;
55879;SDS011;41802;51.564;-1.838;2023-01-08T02:53:45;9.38;;;0.50;;
55879;SDS011;41802;51.564;-1.838;2023-01-08T02:56:15;6.93;;;0.60;;
55879;SDS011;41802;51.564;-1.838;2023-01-08T02:58:45;5.47;;;0.40;;
55879;SDS011;41802;51.564;-1.838;2023-01-08T03:01:14;4.87;;;0.40;;
55879;SDS011;41802;51.564;-1.838;2023-01-08T03:03:43;7.40;;;0.70;;
55879;SDS011;41802;51.564;-1.838;2023-01-08T03:06:14;6.38;;;0.35;;
55879;SDS011;41802;51.564;-1.838;2023-01-08T03:08:44;8.93;;;0.65;;
55879;SDS011;41802;51.564;-1.838;2023-01-08T03:11:13;10.13;;;0.32;;
55879;SDS011;41802;51.564;-1.838;2023-01-08T03:13:43;6.07;;;0.63;;
55879;SDS011;41802;51.564;-1.838;2023-01-08T03:16:14;10.68;;;0.82;;
55879;SDS011;41802;51.564;-1.838;2023-01-08T03:18:43;7.15;;;0.30;;
55879;SDS011;41802;51.564;-1.838;2023-01-08T03:21:12;8.32;;;0.60;;
55879;SDS011;41802;51.564;-1.838;2023-01-08T03:23:42;6.97;;;0.30;;
55879;SDS011;41802;51.564;-1.838;2023-01-08T03:26:12;7.07;;;0.40;;
55879;SDS011;41802;51.564;-1.838;2023-01-08T03:28:42;9.70;;;0.60;;
55879;SDS011;41802;51.564;-1.838;2023-01-08T03:31:13;4.90;;;0.40;;
55879;SDS011;41802;51.564;-1.838;2023-01-08T03:33:41;4.88;;;0.38;;
55879;SDS011;41802;51.564;-1.838;2023-01-08T03:36:10;3.38;;;0.30;;
55879;SDS011;41802;51.564;-1.838;2023-01-08T03:38:42;6.77;;;0.40;;
55879;SDS011;41802;51.564;-1.838;2023-01-08T03:41:12;4.28;;;0.30;;
55879;SDS011;41802;51.564;-1.838;2023-01-08T03:43:41;4.68;;;0.43;;
55879;SDS011;41802;51.564;-1.838;2023-01-08T03:46:10;2.60;;;0.35;;
55879;SDS011;41802;51.564;-1.838;2023-01-08T03:48:42;4.55;;;0.40;;
55879;SDS011;41802;51.564;-1.838;2023-01-08T03:51:10;2.53;;;0.30;;
55879;SDS011;41802;51.564;-1.838;2023-01-08T03:53:37;3.60;;;0.28;;
55879;SDS011;41802;51.564;-1.838;2023-01-08T03:56:05;3.38;;;0.20;;
55879;SDS011;41802;51.564;-1.838;2023-01-08T03:58:33;4.53;;;0.28;;
55879;SDS011;41802;51.564;-1.838;2023-01-08T04:01:00;1.42;;;0.20;;
55879;SDS011;41802;51.564;-1.838;2023-01-08T04:03:28;4.43;;;0.20;;
55879;SDS011;41802;51.564;-1.838;2023-01-08T04:05:59;4.75;;;0.20;;
55879;SDS011;41802;51.564;-1.838;2023-01-08T04:08:26;3.03;;;0.20;;
55879;SDS011;41802;51.564;-1.838;2023-01-08T04:10:54;1.83;;;0.10;;
55879;SDS011;41802;51.564;-1.838;2023-01-08T04:13:22;8.68;;;0.30;;
55879;SDS011;41802;51.564;-1.838;2023-01-08T04:15:50;5.33;;;0.20;;
55879;SDS011;41802;51.564;-1.838;2023-01-08T04:18:17;5.07;;;0.32;;
55879;SDS011;41802;51.564;-1.838;2023-01-08T04:20:45;5.30;;;0.30;;
55879;SDS011;41802;51.564;-1.838;2023-01-08T04:23:14;3.03;;;0.50;;
55879;SDS011;41802;51.564;-1.838;2023-01-08T04:25:46;3.13;;;0.30;;
55879;SDS011;41802;51.564;-1.838;2023-01-08T04:28:14;7.53;;;0.43;;
55879;SDS011;41802;51.564;-1.838;2023-01-08T04:30:42;5.22;;;0.20;;
55879;SDS011;41802;51.564;-1.838;2023-01-08T04:33:10;5.65;;;0.22;;
55879;SDS011;41802;51.564;-1.838;2023-01-08T04:35:37;3.08;;;0.30;;
55879;SDS011;41802;51.564;-1.838;2023-01-08T04:38:05;4.05;;;0.20;;
55879;SDS011;41802;51.564;-1.838;2023-01-08T04:40:34;2.07;;;0.20;;
55879;SDS011;41802;51.564;-1.838;2023-01-08T04:43:02;3.22;;;0.22;;
55879;SDS011;41802;51.564;-1.838;2023-01-08T04:45:30;2.70;;;0.20;;
55879;SDS011;41802;51.564;-1.838;2023-01-08T04:47:59;5.72;;;0.30;;
55879;SDS011;41802;51.564;-1.838;2023-01-08T04:50:27;4.57;;;0.30;;
55879;SDS011;41802;51.564;-1.838;2023-01-08T04:52:54;2.37;;;0.20;;
55879;SDS011;41802;51.564;-1.838;2023-01-08T04:55:24;7.20;;;0.68;;
55879;SDS011;41802;51.564;-1.838;2023-01-08T04:57:54;2.03;;;0.30;;
55879;SDS011;41802;51.564;-1.838;2023-01-08T05:00:21;6.78;;;0.40;;
55879;SDS011;41802;51.564;-1.838;2023-01-08T05:02:49;3.45;;;0.30;;
55879;SDS011;41802;51.564;-1.838;2023-01-08T05:05:18;4.10;;;0.40;;
55879;SDS011;41802;51.564;-1.838;2023-01-08T05:07:46;4.47;;;0.30;;
55879;SDS011;41802;51.564;-1.838;2023-01-08T05:10:14;4.90;;;0.22;;
55879;SDS011;41802;51.564;-1.838;2023-01-08T05:12:42;5.30;;;0.20;;
55879;SDS011;41802;51.564;-1.838;2023-01-08T05:15:11;3.80;;;0.30;;
55879;SDS011;41802;51.564;-1.838;2023-01-08T05:17:39;2.97;;;0.23;;
55879;SDS011;41802;51.564;-1.838;2023-01-08T05:20:07;6.13;;;0.40;;
55879;SDS011;41802;51.564;-1.838;2023-01-08T05:22:36;6.60;;;0.40;;
55879;SDS011;41802;51.564;-1.838;2023-01-08T05:25:04;6.10;;;0.40;;
55879;SDS011;41802;51.564;-1.838;2023-01-08T05:27:32;4.68;;;0.40;;
55879;SDS011;41802;51.564;-1.838;2023-01-08T05:29:59;6.03;;;0.40;;
55879;SDS011;41802;51.564;-1.838;2023-01-08T05:32:28;4.80;;;0.20;;
55879;SDS011;41802;51.564;-1.838;2023-01-08T05:34:56;6.07;;;0.22;;
55879;SDS011;41802;51.564;-1.838;2023-01-08T05:37:24;8.10;;;0.40;;
55879;SDS011;41802;51.564;-1.838;2023-01-08T05:39:52;7.28;;;0.32;;
55879;SDS011;41802;51.564;-1.838;2023-01-08T05:42:19;4.43;;;0.20;;
55879;SDS011;41802;51.564;-1.838;2023-01-08T05:44:49;3.50;;;0.30;;
55879;SDS011;41802;51.564;-1.838;2023-01-08T05:47:19;5.82;;;0.40;;
55879;SDS011;41802;51.564;-1.838;2023-01-08T05:49:49;4.57;;;0.50;;
55879;SDS011;41802;51.564;-1.838;2023-01-08T05:52:17;4.65;;;0.30;;
55879;SDS011;41802;51.564;-1.838;2023-01-08T05:54:44;4.93;;;0.37;;
55879;SDS011;41802;51.564;-1.838;2023-01-08T05:57:12;7.95;;;0.50;;
55879;SDS011;41802;51.564;-1.838;2023-01-08T05:59:40;2.45;;;0.30;;
55879;SDS011;41802;51.564;-1.838;2023-01-08T06:02:07;4.85;;;0.43;;
55879;SDS011;41802;51.564;-1.838;2023-01-08T06:04:35;4.07;;;0.38;;
55879;SDS011;41802;51.564;-1.838;2023-01-08T06:07:04;10.53;;;0.63;;
55879;SDS011;41802;51.564;-1.838;2023-01-08T06:09:32;4.13;;;0.32;;
55879;SDS011;41802;51.564;-1.838;2023-01-08T06:11:59;5.43;;;0.40;;
55879;SDS011;41802;51.564;-1.838;2023-01-08T06:14:27;8.35;;;0.40;;
55879;SDS011;41802;51.564;-1.838;2023-01-08T06:16:55;6.85;;;0.60;;
55879;SDS011;41802;51.564;-1.838;2023-01-08T06:19:22;9.00;;;0.40;;
55879;SDS011;41802;51.564;-1.838;2023-01-08T06:21:51;6.53;;;0.52;;
55879;SDS011;41802;51.564;-1.838;2023-01-08T06:24:23;4.22;;;0.55;;
55879;SDS011;41802;51.564;-1.838;2023-01-08T06:26:51;2.95;;;0.30;;
55879;SDS011;41802;51.564;-1.838;2023-01-08T06:29:19;5.55;;;0.40;;
55879;SDS011;41802;51.564;-1.838;2023-01-08T06:31:46;3.57;;;0.30;;
55879;SDS011;41802;51.564;-1.838;2023-01-08T06:34:14;6.72;;;0.40;;
55879;SDS011;41802;51.564;-1.838;2023-01-08T06:36:41;8.05;;;0.28;;
55879;SDS011;41802;51.564;-1.838;2023-01-08T06:39:09;5.68;;;0.40;;
55879;SDS011;41802;51.564;-1.838;2023-01-08T06:41:38;7.68;;;0.45;;
55879;SDS011;41802;51.564;-1.838;2023-01-08T06:44:06;10.53;;;0.50;;
55879;SDS011;41802;51.564;-1.838;2023-01-08T06:46:33;8.20;;;0.73;;
55879;SDS011;41802;51.564;-1.838;2023-01-08T06:49:05;6.55;;;0.57;;
55879;SDS011;41802;51.564;-1.838;2023-01-08T06:51:33;5.63;;;0.32;;
55879;SDS011;41802;51.564;-1.838;2023-01-08T06:54:01;5.05;;;0.45;;
55879;SDS011;41802;51.564;-1.838;2023-01-08T06:56:28;7.80;;;0.40;;
55879;SDS011;41802;51.564;-1.838;2023-01-08T06:58:57;6.63;;;0.60;;
55879;SDS011;41802;51.564;-1.838;2023-01-08T07:01:25;9.75;;;0.57;;
55879;SDS011;41802;51.564;-1.838;2023-01-08T07:03:53;9.73;;;0.80;;
55879;SDS011;41802;51.564;-1.838;2023-01-08T07:06:21;11.57;;;0.75;;
55879;SDS011;41802;51.564;-1.838;2023-01-08T07:08:50;5.17;;;0.40;;
55879;SDS011;41802;51.564;-1.838;2023-01-08T07:11:18;10.93;;;0.60;;
55879;SDS011;41802;51.564;-1.838;2023-01-08T07:13:45;8.40;;;0.80;;
55879;SDS011;41802;51.564;-1.838;2023-01-08T07:16:14;7.10;;;0.40;;
55879;SDS011;41802;51.564;-1.838;2023-01-08T07:18:42;7.82;;;0.45;;
55879;SDS011;41802;51.564;-1.838;2023-01-08T07:21:10;6.57;;;0.50;;
55879;SDS011;41802;51.564;-1.838;2023-01-08T07:23:37;7.90;;;0.75;;
55879;SDS011;41802;51.564;-1.838;2023-01-08T07:26:07;6.60;;;0.40;;
55879;SDS011;41802;51.564;-1.838;2023-01-08T07:28:34;6.10;;;0.50;;
55879;SDS011;41802;51.564;-1.838;2023-01-08T07:31:03;8.30;;;0.45;;
55879;SDS011;41802;51.564;-1.838;2023-01-08T07:33:32;12.13;;;0.87;;
55879;SDS011;41802;51.564;-1.838;2023-01-08T07:36:00;8.75;;;0.50;;
55879;SDS011;41802;51.564;-1.838;2023-01-08T07:38:28;7.07;;;0.63;;
55879;SDS011;41802;51.564;-1.838;2023-01-08T07:40:56;8.30;;;0.70;;
55879;SDS011;41802;51.564;-1.838;2023-01-08T07:43:24;4.45;;;0.52;;
55879;SDS011;41802;51.564;-1.838;2023-01-08T07:45:55;7.87;;;0.50;;
55879;SDS011;41802;51.564;-1.838;2023-01-08T07:48:24;8.00;;;0.47;;
55879;SDS011;41802;51.564;-1.838;2023-01-08T07:50:53;8.07;;;0.47;;
55879;SDS011;41802;51.564;-1.838;2023-01-08T07:53:21;6.50;;;0.70;;
55879;SDS011;41802;51.564;-1.838;2023-01-08T07:55:48;10.27;;;0.73;;
55879;SDS011;41802;51.564;-1.838;2023-01-08T07:58:16;7.83;;;0.70;;
55879;SDS011;41802;51.564;-1.838;2023-01-08T08:00:44;9.90;;;0.65;;
55879;SDS011;41802;51.564;-1.838;2023-01-08T08:03:11;6.07;;;0.40;;
55879;SDS011;41802;51.564;-1.838;2023-01-08T08:05:39;6.43;;;0.55;;
55879;SDS011;41802;51.564;-1.838;2023-01-08T08:08:09;7.03;;;0.57;;
55879;SDS011;41802;51.564;-1.838;2023-01-08T08:10:37;12.07;;;0.83;;
55879;SDS011;41802;51.564;-1.838;2023-01-08T08:13:05;11.75;;;0.68;;
55879;SDS011;41802;51.564;-1.838;2023-01-08T08:15:33;7.18;;;0.50;;
55879;SDS011;41802;51.564;-1.838;2023-01-08T08:18:03;6.30;;;0.75;;
55879;SDS011;41802;51.564;-1.838;2023-01-08T08:20:31;4.85;;;0.45;;
55879;SDS011;41802;51.564;-1.838;2023-01-08T08:22:59;7.40;;;0.63;;
55879;SDS011;41802;51.564;-1.838;2023-01-08T08:25:28;8.95;;;0.35;;
55879;SDS011;41802;51.564;-1.838;2023-01-08T08:28:00;7.07;;;0.60;;
55879;SDS011;41802;51.564;-1.838;2023-01-08T08:30:28;9.02;;;1.15;;
55879;SDS011;41802;51.564;-1.838;2023-01-08T08:32:57;8.75;;;0.82;;
55879;SDS011;41802;51.564;-1.838;2023-01-08T08:35:25;9.87;;;0.70;;
55879;SDS011;41802;51.564;-1.838;2023-01-08T08:37:53;10.43;;;0.93;;
55879;SDS011;41802;51.564;-1.838;2023-01-08T08:40:21;8.93;;;0.60;;
55879;SDS011;41802;51.564;-1.838;2023-01-08T08:42:53;9.30;;;0.50;;
55879;SDS011;41802;51.564;-1.838;2023-01-08T08:45:21;7.45;;;0.43;;
55879;SDS011;41802;51.564;-1.838;2023-01-08T08:47:49;7.83;;;0.43;;
55879;SDS011;41802;51.564;-1.838;2023-01-08T08:50:17;9.18;;;0.47;;
55879;SDS011;41802;51.564;-1.838;2023-01-08T08:52:45;7.70;;;0.40;;
55879;SDS011;41802;51.564;-1.838;2023-01-08T08:55:15;9.20;;;0.88;;
55879;SDS011;41802;51.564;-1.838;2023-01-08T08:57:43;5.20;;;0.50;;
55879;SDS011;41802;51.564;-1.838;2023-01-08T09:00:14;6.87;;;0.53;;
55879;SDS011;41802;51.564;-1.838;2023-01-08T09:02:44;6.93;;;0.70;;
55879;SDS011;41802;51.564;-1.838;2023-01-08T09:05:12;10.30;;;0.45;;
55879;SDS011;41802;51.564;-1.838;2023-01-08T09:07:40;9.38;;;0.77;;
55879;SDS011;41802;51.564;-1.838;2023-01-08T09:10:08;6.32;;;0.50;;
55879;SDS011;41802;51.564;-1.838;2023-01-08T09:12:36;9.87;;;0.70;;
55879;SDS011;41802;51.564;-1.838;2023-01-08T09:15:04;10.75;;;0.70;;
55879;SDS011;41802;51.564;-1.838;2023-01-08T09:17:33;8.50;;;0.80;;
55879;SDS011;41802;51.564;-1.838;2023-01-08T09:20:02;8.60;;;0.47;;
55879;SDS011;41802;51.564;-1.838;2023-01-08T09:22:29;6.32;;;0.50;;
55879;SDS011;41802;51.564;-1.838;2023-01-08T09:24:57;6.90;;;0.50;;
55879;SDS011;41802;51.564;-1.838;2023-01-08T09:27:25;8.50;;;0.70;;
55879;SDS011;41802;51.564;-1.838;2023-01-08T09:29:53;7.18;;;0.85;;
55879;SDS011;41802;51.564;-1.838;2023-01-08T09:32:21;10.82;;;0.68;;
55879;SDS011;41802;51.564;-1.838;2023-01-08T09:34:50;9.95;;;0.50;;
55879;SDS011;41802;51.564;-1.838;2023-01-08T09:37:18;6.03;;;0.40;;
55879;SDS011;41802;51.564;-1.838;2023-01-08T09:39:45;10.90;;;0.57;;
55879;SDS011;41802;51.564;-1.838;2023-01-08T09:42:26;8.70;;;0.98;;
55879;SDS011;41802;51.564;-1.838;2023-01-08T09:44:55;9.63;;;0.60;;
55879;SDS011;41802;51.564;-1.838;2023-01-08T09:47:25;9.65;;;0.57;;
55879;SDS011;41802;51.564;-1.838;2023-01-08T09:49:57;6.37;;;0.93;;
55879;SDS011;41802;51.564;-1.838;2023-01-08T09:52:26;7.50;;;0.90;;
55879;SDS011;41802;51.564;-1.838;2023-01-08T09:54:54;6.53;;;0.60;;
55879;SDS011;41802;51.564;-1.838;2023-01-08T09:57:22;9.82;;;0.77;;
55879;SDS011;41802;51.564;-1.838;2023-01-08T09:59:49;6.07;;;0.43;;
55879;SDS011;41802;51.564;-1.838;2023-01-08T10:02:17;7.07;;;0.50;;
55879;SDS011;41802;51.564;-1.838;2023-01-08T10:04:47;6.13;;;0.50;;
55879;SDS011;41802;51.564;-1.838;2023-01-08T10:07:21;10.65;;;0.80;;
55879;SDS011;41802;51.564;-1.838;2023-01-08T10:09:53;10.20;;;0.60;;
55879;SDS011;41802;51.564;-1.838;2023-01-08T10:12:28;9.15;;;0.98;;
55879;SDS011;41802;51.564;-1.838;2023-01-08T10:14:57;13.33;;;1.20;;
55879;SDS011;41802;51.564;-1.838;2023-01-08T10:17:27;6.38;;;0.70;;
55879;SDS011;41802;51.564;-1.838;2023-01-08T10:19:57;8.40;;;0.60;;
55879;SDS011;41802;51.564;-1.838;2023-01-08T10:22:27;6.47;;;0.43;;
55879;SDS011;41802;51.564;-1.838;2023-01-08T10:25:02;5.50;;;0.43;;
55879;SDS011;41802;51.564;-1.838;2023-01-08T10:27:31;13.60;;;1.00;;
55879;SDS011;41802;51.564;-1.838;2023-01-08T10:30:03;11.43;;;0.70;;
55879;SDS011;41802;51.564;-1.838;2023-01-08T10:32:31;13.27;;;0.57;;
55879;SDS011;41802;51.564;-1.838;2023-01-08T10:35:02;7.30;;;0.40;;
55879;SDS011;41802;51.564;-1.838;2023-01-08T10:37:35;7.88;;;0.57;;
55879;SDS011;41802;51.564;-1.838;2023-01-08T10:40:03;12.07;;;0.97;;
55879;SDS011;41802;51.564;-1.838;2023-01-08T10:42:34;8.98;;;0.50;;
55879;SDS011;41802;51.564;-1.838;2023-01-08T10:45:03;9.85;;;0.47;;
55879;SDS011;41802;51.564;-1.838;2023-01-08T10:47:33;9.07;;;0.30;;
55879;SDS011;41802;51.564;-1.838;2023-01-08T10:50:02;11.00;;;0.43;;
55879;SDS011;41802;51.564;-1.838;2023-01-08T10:52:32;6.87;;;0.43;;
55879;SDS011;41802;51.564;-1.838;2023-01-08T10:55:11;10.65;;;0.40;;
55879;SDS011;41802;51.564;-1.838;2023-01-08T10:57:39;7.68;;;0.68;;
55879;SDS011;41802;51.564;-1.838;2023-01-08T11:00:21;7.40;;;0.43;;
55879;SDS011;41802;51.564;-1.838;2023-01-08T11:02:52;3.85;;;0.30;;
55879;SDS011;41802;51.564;-1.838;2023-01-08T11:05:27;2.03;;;0.20;;
55879;SDS011;41802;51.564;-1.838;2023-01-08T11:07:57;2.13;;;0.10;;
55879;SDS011;41802;51.564;-1.838;2023-01-08T11:10:25;3.08;;;0.20;;
55879;SDS011;41802;51.564;-1.838;2023-01-08T11:12:54;3.03;;;0.30;;
55879;SDS011;41802;51.564;-1.838;2023-01-08T11:15:25;4.78;;;0.32;;
55879;SDS011;41802;51.564;-1.838;2023-01-08T11:17:54;3.23;;;0.20;;
55879;SDS011;41802;51.564;-1.838;2023-01-08T11:20:31;2.67;;;0.10;;
55879;SDS011;41802;51.564;-1.838;2023-01-08T11:23:09;3.45;;;0.20;;
55879;SDS011;41802;51.564;-1.838;2023-01-08T11:25:40;4.93;;;0.40;;
55879;SDS011;41802;51.564;-1.838;2023-01-08T11:28:09;7.57;;;0.38;;
55879;SDS011;41802;51.564;-1.838;2023-01-08T11:30:43;4.63;;;0.30;;
55879;SDS011;41802;51.564;-1.838;2023-01-08T11:33:15;2.80;;;0.30;;
55879;SDS011;41802;51.564;-1.838;2023-01-08T11:35:45;4.07;;;0.20;;
55879;SDS011;41802;51.564;-1.838;2023-01-08T11:38:16;2.83;;;0.40;;
55879;SDS011;41802;51.564;-1.838;2023-01-08T11:40:45;3.28;;;0.20;;
55879;SDS011;41802;51.564;-1.838;2023-01-08T11:43:17;2.73;;;0.20;;
55879;SDS011;41802;51.564;-1.838;2023-01-08T11:45:52;4.38;;;0.28;;
55879;SDS011;41802;51.564;-1.838;2023-01-08T11:48:29;4.57;;;0.20;;
55879;SDS011;41802;51.564;-1.838;2023-01-08T11:51:02;4.70;;;0.20;;
55879;SDS011;41802;51.564;-1.838;2023-01-08T11:53:35;7.22;;;0.38;;
55879;SDS011;41802;51.564;-1.838;2023-01-08T11:56:08;3.57;;;0.30;;
55879;SDS011;41802;51.564;-1.838;2023-01-08T11:58:43;3.38;;;0.32;;
55879;SDS011;41802;51.564;-1.838;2023-01-08T12:01:20;4.80;;;0.38;;
55879;SDS011;41802;51.564;-1.838;2023-01-08T12:03:54;4.30;;;0.22;;
55879;SDS011;41802;51.564;-1.838;2023-01-08T12:06:27;5.20;;;0.45;;
55879;SDS011;41802;51.564;-1.838;2023-01-08T12:09:02;4.03;;;0.30;;
55879;SDS011;41802;51.564;-1.838;2023-01-08T12:11:35;4.85;;;0.30;;
55879;SDS011;41802;51.564;-1.838;2023-01-08T12:14:17;3.53;;;0.30;;
55879;SDS011;41802;51.564;-1.838;2023-01-08T12:16:58;5.68;;;0.25;;
55879;SDS011;41802;51.564;-1.838;2023-01-08T12:19:32;4.05;;;0.20;;
55879;SDS011;41802;51.564;-1.838;2023-01-08T12:22:07;4.13;;;0.30;;
55879;SDS011;41802;51.564;-1.838;2023-01-08T12:24:42;6.47;;;0.30;;
55879;SDS011;41802;51.564;-1.838;2023-01-08T12:27:13;5.97;;;0.20;;
55879;SDS011;41802;51.564;-1.838;2023-01-08T12:30:02;3.53;;;0.30;;
55879;SDS011;41802;51.564;-1.838;2023-01-08T12:32:31;2.65;;;0.20;;
55879;SDS011;41802;51.564;-1.838;2023-01-08T12:35:03;2.27;;;0.20;;
55879;SDS011;41802;51.564;-1.838;2023-01-08T12:37:33;4.15;;;0.20;;
55879;SDS011;41802;51.564;-1.838;2023-01-08T12:40:04;2.03;;;0.45;;
55879;SDS011;41802;51.564;-1.838;2023-01-08T12:42:36;4.35;;;0.20;;
55879;SDS011;41802;51.564;-1.838;2023-01-08T12:45:05;5.68;;;0.40;;
55879;SDS011;41802;51.564;-1.838;2023-01-08T12:47:36;2.03;;;0.20;;
55879;SDS011;41802;51.564;-1.838;2023-01-08T12:50:08;2.50;;;0.30;;
55879;SDS011;41802;51.564;-1.838;2023-01-08T12:52:38;2.20;;;0.20;;
55879;SDS011;41802;51.564;-1.838;2023-01-08T12:55:15;2.05;;;0.20;;
55879;SDS011;41802;51.564;-1.838;2023-01-08T12:57:45;3.88;;;0.30;;
55879;SDS011;41802;51.564;-1.838;2023-01-08T13:00:16;5.23;;;0.30;;
55879;SDS011;41802;51.564;-1.838;2023-01-08T13:02:48;4.70;;;0.40;;
55879;SDS011;41802;51.564;-1.838;2023-01-08T13:05:27;3.60;;;0.30;;
55879;SDS011;41802;51.564;-1.838;2023-01-08T13:07:56;4.07;;;0.43;;
55879;SDS011;41802;51.564;-1.838;2023-01-08T13:10:28;6.70;;;1.45;;
55879;SDS011;41802;51.564;-1.838;2023-01-08T13:12:59;4.00;;;0.40;;
55879;SDS011;41802;51.564;-1.838;2023-01-08T13:15:27;8.38;;;0.60;;
55879;SDS011;41802;51.564;-1.838;2023-01-08T13:17:56;6.47;;;0.43;;
55879;SDS011;41802;51.564;-1.838;2023-01-08T13:20:25;8.52;;;1.30;;
55879;SDS011;41802;51.564;-1.838;2023-01-08T13:22:53;7.93;;;0.98;;
55879;SDS011;41802;51.564;-1.838;2023-01-08T13:25:26;5.17;;;0.80;;
55879;SDS011;41802;51.564;-1.838;2023-01-08T13:27:56;5.30;;;0.57;;
55879;SDS011;41802;51.564;-1.838;2023-01-08T13:30:34;5.60;;;0.40;;
55879;SDS011;41802;51.564;-1.838;2023-01-08T13:35:46;4.18;;;0.50;;
55879;SDS011;41802;51.564;-1.838;2023-01-08T13:38:15;4.97;;;0.50;;
55879;SDS011;41802;51.564;-1.838;2023-01-08T13:40:49;7.32;;;1.13;;
55879;SDS011;41802;51.564;-1.838;2023-01-08T13:43:21;5.13;;;0.70;;
55879;SDS011;41802;51.564;-1.838;2023-01-08T13:45:53;5.22;;;0.30;;
55879;SDS011;41802;51.564;-1.838;2023-01-08T13:48:21;2.45;;;0.30;;
55879;SDS011;41802;51.564;-1.838;2023-01-08T13:50:49;4.33;;;0.20;;
55879;SDS011;41802;51.564;-1.838;2023-01-08T13:53:17;3.00;;;0.70;;
55879;SDS011;41802;51.564;-1.838;2023-01-08T13:55:48;3.17;;;0.20;;
55879;SDS011;41802;51.564;-1.838;2023-01-08T13:58:22;3.65;;;0.20;;
55879;SDS011;41802;51.564;-1.838;2023-01-08T14:00:52;4.32;;;0.30;;
55879;SDS011;41802;51.564;-1.838;2023-01-08T14:03:21;3.80;;;0.30;;
55879;SDS011;41802;51.564;-1.838;2023-01-08T14:05:49;2.25;;;0.20;;
55879;SDS011;41802;51.564;-1.838;2023-01-08T14:08:20;3.17;;;0.40;;
55879;SDS011;41802;51.564;-1.838;2023-01-08T14:10:48;4.97;;;0.40;;
55879;SDS011;41802;51.564;-1.838;2023-01-08T14:13:16;4.65;;;0.20;;
55879;SDS011;41802;51.564;-1.838;2023-01-08T14:15:45;4.87;;;0.30;;
55879;SDS011;41802;51.564;-1.838;2023-01-08T14:18:14;4.00;;;0.30;;
55879;SDS011;41802;51.564;-1.838;2023-01-08T14:20:43;3.30;;;0.50;;
55879;SDS011;41802;51.564;-1.838;2023-01-08T14:23:12;3.63;;;0.25;;
55879;SDS011;41802;51.564;-1.838;2023-01-08T14:25:40;3.42;;;0.20;;
55879;SDS011;41802;51.564;-1.838;2023-01-08T14:28:13;2.17;;;0.50;;
55879;SDS011;41802;51.564;-1.838;2023-01-08T14:30:48;2.92;;;0.20;;
55879;SDS011;41802;51.564;-1.838;2023-01-08T14:33:16;5.35;;;0.30;;
55879;SDS011;41802;51.564;-1.838;2023-01-08T14:35:45;2.47;;;0.30;;
55879;SDS011;41802;51.564;-1.838;2023-01-08T14:38:14;2.08;;;0.20;;
55879;SDS011;41802;51.564;-1.838;2023-01-08T14:40:43;2.97;;;0.30;;
55879;SDS011;41802;51.564;-1.838;2023-01-08T14:43:12;2.53;;;0.20;;
55879;SDS011;41802;51.564;-1.838;2023-01-08T14:45:43;2.22;;;0.25;;
55879;SDS011;41802;51.564;-1.838;2023-01-08T14:48:16;2.20;;;0.20;;
55879;SDS011;41802;51.564;-1.838;2023-01-08T14:53:36;4.17;;;0.30;;